createdAt,value
2022-08-30T00:01:59.961Z,1.50
2022-08-30T00:04:27.538Z,1.30
2022-08-30T00:06:54.801Z,1.10
2022-08-30T00:09:22.133Z,1.27
2022-08-30T00:11:52.110Z,1.25
2022-08-30T00:14:20.386Z,1.35
2022-08-30T00:16:47.641Z,1.50
2022-08-30T00:19:15.221Z,1.00
2022-08-30T00:21:42.069Z,1.00
2022-08-30T00:24:09.299Z,1.10
2022-08-30T00:26:36.129Z,1.00
2022-08-30T00:29:03.736Z,1.23
2022-08-30T00:31:31.096Z,1.13
2022-08-30T00:33:58.379Z,1.20
2022-08-30T00:36:25.657Z,1.13
2022-08-30T00:38:53.336Z,1.50
2022-08-30T00:41:20.547Z,1.40
2022-08-30T00:43:47.765Z,1.08
2022-08-30T00:46:15.051Z,1.50
2022-08-30T00:48:43.921Z,1.20
2022-08-30T00:51:12.211Z,1.30
2022-08-30T00:53:42.119Z,1.10
2022-08-30T00:56:10.211Z,1.02
2022-08-30T00:58:39.368Z,1.65
2022-08-30T01:01:07.968Z,1.52
2022-08-30T01:03:35.912Z,1.60
2022-08-30T01:06:04.978Z,1.30
2022-08-30T01:08:32.401Z,1.30
2022-08-30T01:11:00.044Z,1.30
2022-08-30T01:13:29.386Z,1.50
2022-08-30T01:15:57.377Z,1.48
2022-08-30T01:18:25.027Z,1.15
2022-08-30T01:20:58.232Z,1.27
2022-08-30T01:23:26.547Z,1.00
2022-08-30T01:25:56.172Z,1.58
2022-08-30T01:28:27.737Z,1.25
2022-08-30T01:30:55.034Z,1.38
2022-08-30T01:33:23.078Z,1.30
2022-08-30T01:35:53.757Z,1.23
2022-08-30T01:38:22.713Z,1.30
2022-08-30T01:40:50.424Z,1.17
2022-08-30T01:43:18.342Z,1.13
2022-08-30T01:45:45.565Z,1.30
2022-08-30T01:48:13.038Z,1.42
2022-08-30T01:50:41.626Z,1.02
2022-08-30T01:53:13.395Z,1.13
2022-08-30T01:55:40.893Z,1.42
2022-08-30T01:58:08.170Z,0.90
2022-08-30T02:00:35.622Z,1.23
2022-08-30T02:03:02.577Z,1.30
2022-08-30T02:05:29.889Z,1.20
2022-08-30T02:07:56.684Z,1.27
2022-08-30T02:10:24.227Z,1.60
2022-08-30T02:16:39.827Z,1.33
2022-08-30T02:19:07.110Z,1.40
2022-08-30T02:21:34.569Z,1.60
2022-08-30T02:24:01.816Z,1.40
2022-08-30T02:26:29.102Z,1.60
2022-08-30T02:28:58.993Z,1.52
2022-08-30T02:31:26.655Z,1.67
2022-08-30T02:33:55.472Z,1.50
2022-08-30T02:36:22.796Z,1.40
2022-08-30T02:38:50.888Z,1.58
2022-08-30T02:41:18.548Z,1.95
2022-08-30T02:43:46.230Z,1.63
2022-08-30T02:46:14.000Z,1.13
2022-08-30T02:48:41.304Z,1.23
2022-08-30T02:51:11.665Z,1.30
2022-08-30T02:53:39.953Z,1.08
2022-08-30T02:56:07.272Z,1.60
2022-08-30T02:58:35.680Z,1.90
2022-08-30T03:01:03.019Z,1.40
2022-08-30T03:03:30.401Z,1.05
2022-08-30T03:05:57.776Z,1.48
2022-08-30T03:08:25.129Z,1.42
2022-08-30T03:10:52.671Z,1.55
2022-08-30T03:13:19.895Z,1.42
2022-08-30T03:15:50.327Z,1.55
2022-08-30T03:18:21.591Z,1.63
2022-08-30T03:20:54.135Z,1.90
2022-08-30T03:23:22.127Z,1.40
2022-08-30T03:25:49.521Z,1.33
2022-08-30T03:28:17.057Z,1.63
2022-08-30T03:30:44.266Z,1.58
2022-08-30T03:33:11.587Z,1.60
2022-08-30T03:35:38.560Z,1.20
2022-08-30T03:38:06.378Z,1.60
2022-08-30T03:40:33.747Z,1.50
2022-08-30T03:43:01.036Z,1.40
2022-08-30T03:45:28.671Z,1.40
2022-08-30T03:47:55.974Z,1.27
2022-08-30T03:50:23.272Z,1.52
2022-08-30T03:52:50.951Z,1.67
2022-08-30T03:55:18.191Z,1.27
2022-08-30T03:57:45.620Z,1.80
2022-08-30T04:00:14.381Z,1.27
2022-08-30T04:02:42.153Z,1.50
2022-08-30T04:05:10.276Z,1.63
2022-08-30T04:07:37.568Z,1.88
2022-08-30T04:10:05.889Z,1.33
2022-08-30T04:12:33.097Z,1.67
2022-08-30T04:15:00.321Z,2.10
2022-08-30T04:17:27.607Z,1.60
2022-08-30T04:19:54.822Z,1.80
2022-08-30T04:22:22.133Z,1.70
2022-08-30T04:24:49.353Z,1.92
2022-08-30T04:27:20.206Z,1.77
2022-08-30T04:29:47.720Z,1.70
2022-08-30T04:32:15.372Z,1.42
2022-08-30T04:34:42.592Z,1.65
2022-08-30T04:37:10.136Z,1.77
2022-08-30T04:39:38.752Z,1.90
2022-08-30T04:42:06.962Z,1.48
2022-08-30T04:44:34.194Z,1.83
2022-08-30T04:47:02.418Z,1.80
2022-08-30T04:49:29.612Z,1.33
2022-08-30T04:51:56.849Z,1.45
2022-08-30T04:54:24.082Z,1.77
2022-08-30T04:56:51.296Z,1.75
2022-08-30T04:59:18.548Z,1.92
2022-08-30T05:01:46.206Z,1.92
2022-08-30T05:04:14.178Z,1.95
2022-08-30T05:06:41.755Z,1.45
2022-08-30T05:09:08.966Z,1.90
2022-08-30T05:11:36.937Z,2.63
2022-08-30T05:14:04.180Z,1.55
2022-08-30T05:16:31.485Z,1.80
2022-08-30T05:18:58.720Z,1.55
2022-08-30T05:21:29.867Z,1.98
2022-08-30T05:23:58.157Z,1.77
2022-08-30T05:26:27.447Z,1.60
2022-08-30T05:28:54.899Z,2.28
2022-08-30T05:31:31.551Z,1.75
2022-08-30T05:33:59.364Z,1.92
2022-08-30T05:36:28.952Z,1.77
2022-08-30T05:39:00.480Z,1.75
2022-08-30T05:41:28.995Z,1.80
2022-08-30T05:43:59.878Z,1.52
2022-08-30T05:46:31.427Z,1.85
2022-08-30T05:48:58.681Z,1.70
2022-08-30T05:51:29.857Z,1.60
2022-08-30T05:53:59.768Z,1.67
2022-08-30T05:56:31.870Z,1.67
2022-08-30T05:59:01.407Z,1.52
2022-08-30T06:01:33.526Z,1.70
2022-08-30T06:04:04.131Z,1.67
2022-08-30T06:06:32.392Z,1.92
2022-08-30T06:08:59.533Z,1.77
2022-08-30T06:11:27.690Z,1.77
2022-08-30T06:13:55.613Z,1.77
2022-08-30T06:16:23.927Z,1.85
2022-08-30T06:18:51.616Z,1.73
2022-08-30T06:21:20.013Z,1.70
2022-08-30T06:23:47.311Z,2.08
2022-08-30T06:26:14.558Z,1.73
2022-08-30T06:28:41.784Z,1.98
2022-08-30T06:31:10.373Z,2.10
2022-08-30T06:33:37.991Z,1.92
2022-08-30T06:36:06.246Z,2.28
2022-08-30T06:38:33.568Z,1.88
2022-08-30T06:41:00.804Z,2.20
2022-08-30T06:43:28.805Z,1.73
2022-08-30T06:45:56.279Z,1.55
2022-08-30T06:48:23.582Z,1.70
2022-08-30T06:50:54.892Z,1.45
2022-08-30T06:53:22.312Z,1.67
2022-08-30T06:55:57.736Z,2.45
2022-08-30T06:58:25.171Z,1.83
2022-08-30T07:00:52.405Z,1.95
2022-08-30T07:03:19.892Z,2.05
2022-08-30T07:05:48.991Z,2.22
2022-08-30T07:08:16.812Z,1.88
2022-08-30T07:10:44.780Z,1.75
2022-08-30T07:13:12.288Z,1.65
2022-08-30T07:15:42.597Z,1.67
2022-08-30T07:18:29.577Z,1.63
2022-08-30T07:20:57.248Z,1.60
2022-08-30T07:23:24.697Z,1.77
2022-08-30T07:25:51.931Z,1.63
2022-08-30T07:28:19.223Z,1.83
2022-08-30T07:30:46.442Z,1.65
2022-08-30T07:33:13.821Z,1.90
2022-08-30T07:35:41.574Z,1.88
2022-08-30T07:38:13.054Z,1.83
2022-08-30T07:40:39.974Z,1.48
2022-08-30T07:43:07.244Z,2.13
2022-08-30T07:45:35.372Z,2.35
2022-08-30T07:48:02.790Z,1.85
2022-08-30T07:50:30.037Z,1.90
2022-08-30T07:52:57.320Z,1.73
2022-08-30T07:55:24.639Z,1.80
2022-08-30T07:57:51.927Z,1.60
2022-08-30T08:00:20.112Z,1.75
2022-08-30T08:02:47.540Z,1.70
2022-08-30T08:05:17.605Z,2.00
2022-08-30T08:07:46.080Z,2.30
2022-08-30T08:10:13.703Z,1.63
2022-08-30T08:12:41.997Z,1.90
2022-08-30T08:15:09.596Z,1.98
2022-08-30T08:17:36.939Z,1.70
2022-08-30T08:20:04.693Z,1.50
2022-08-30T08:22:32.890Z,1.67
2022-08-30T08:25:01.656Z,1.85
2022-08-30T08:27:29.071Z,1.52
2022-08-30T08:29:56.376Z,1.48
2022-08-30T08:32:23.596Z,1.90
2022-08-30T08:34:50.961Z,1.83
2022-08-30T08:37:18.620Z,1.85
2022-08-30T08:39:48.621Z,1.75
2022-08-30T08:42:15.810Z,1.70
2022-08-30T08:44:46.901Z,1.60
2022-08-30T08:47:29.913Z,1.42
2022-08-30T08:49:59.229Z,1.58
2022-08-30T08:52:48.658Z,1.63
2022-08-30T08:55:18.993Z,1.60
2022-08-30T08:57:46.498Z,1.85
2022-08-30T09:00:14.349Z,1.85
2022-08-30T09:02:45.964Z,1.90
2022-08-30T09:05:15.207Z,1.85
2022-08-30T09:07:44.598Z,2.13
2022-08-30T09:10:11.856Z,1.42
2022-08-30T09:12:39.048Z,1.50
2022-08-30T09:15:09.537Z,1.98
2022-08-30T09:17:57.412Z,1.73
2022-08-30T09:20:26.471Z,1.35
2022-08-30T09:22:53.969Z,1.40
2022-08-30T09:25:21.517Z,1.55
2022-08-30T09:27:52.316Z,1.30
2022-08-30T09:30:23.993Z,1.88
2022-08-30T09:32:57.000Z,1.70
2022-08-30T09:35:26.406Z,1.52
2022-08-30T09:37:58.264Z,1.95
2022-08-30T09:40:32.752Z,1.83
2022-08-30T09:43:20.230Z,1.30
2022-08-30T09:46:00.004Z,1.67
2022-08-30T09:48:26.784Z,1.80
2022-08-30T09:50:59.186Z,1.77
2022-08-30T09:53:31.880Z,1.58
2022-08-30T09:56:07.070Z,1.88
2022-08-30T09:59:01.290Z,1.30
2022-08-30T10:01:31.392Z,1.65
2022-08-30T10:04:30.874Z,1.67
2022-08-30T10:07:11.675Z,2.00
2022-08-30T10:09:44.743Z,1.60
2022-08-30T10:12:24.186Z,1.77
2022-08-30T10:14:59.868Z,1.60
2022-08-30T10:17:44.863Z,1.65
2022-08-30T10:20:30.824Z,1.55
2022-08-30T10:23:06.218Z,1.50
2022-08-30T10:25:35.806Z,1.42
2022-08-30T10:28:10.913Z,1.77
2022-08-30T10:30:39.700Z,1.42
2022-08-30T10:33:06.928Z,1.48
2022-08-30T10:38:29.505Z,1.48
2022-08-30T10:41:15.584Z,1.98
2022-08-30T10:43:56.849Z,1.80
2022-08-30T10:46:49.614Z,1.17
2022-08-30T10:49:19.715Z,2.35
2022-08-30T10:51:50.507Z,1.83
2022-08-30T10:54:21.645Z,2.20
2022-08-30T10:56:51.406Z,2.00
2022-08-30T10:59:19.143Z,1.65
2022-08-30T11:02:06.489Z,1.85
2022-08-30T11:04:36.711Z,1.50
2022-08-30T11:07:10.041Z,1.40
2022-08-30T11:09:49.603Z,1.90
2022-08-30T11:12:23.128Z,1.63
2022-08-30T11:14:51.349Z,1.67
2022-08-30T11:17:24.980Z,1.23
2022-08-30T11:19:53.494Z,1.63
2022-08-30T11:22:38.259Z,1.52
2022-08-30T11:25:12.260Z,1.85
2022-08-30T11:27:44.754Z,1.23
2022-08-30T11:30:27.563Z,1.50
2022-08-30T11:33:00.912Z,1.40
2022-08-30T11:35:37.247Z,1.58
2022-08-30T11:38:23.591Z,1.30
2022-08-30T11:40:53.251Z,1.23
2022-08-30T11:43:36.859Z,1.52
2022-08-30T11:46:15.005Z,1.60
2022-08-30T11:48:54.545Z,1.20
2022-08-30T11:51:28.845Z,1.20
2022-08-30T11:54:00.404Z,1.75
2022-08-30T11:56:36.663Z,1.50
2022-08-30T11:59:32.878Z,1.55
2022-08-30T12:02:01.533Z,1.25
2022-08-30T12:04:49.445Z,1.50
2022-08-30T12:07:42.753Z,1.90
2022-08-30T12:10:21.637Z,1.27
2022-08-30T12:12:50.956Z,1.27
2022-08-30T12:15:29.473Z,1.38
2022-08-30T12:18:31.439Z,1.58
2022-08-30T12:21:02.308Z,1.33
2022-08-30T12:23:29.670Z,1.20
2022-08-30T12:26:11.101Z,1.30
2022-08-30T12:28:38.721Z,1.58
2022-08-30T12:31:26.951Z,1.40
2022-08-30T12:33:56.631Z,1.52
2022-08-30T12:36:50.936Z,1.27
2022-08-30T12:39:23.073Z,1.05
2022-08-30T12:41:50.568Z,1.30
2022-08-30T12:44:25.106Z,1.45
2022-08-30T12:46:58.944Z,1.63
2022-08-30T12:49:28.788Z,1.48
2022-08-30T12:51:56.660Z,1.08
2022-08-30T12:54:28.049Z,1.30
2022-08-30T12:57:13.884Z,1.10
2022-08-30T12:59:56.757Z,1.20
2022-08-30T13:02:28.297Z,1.08
2022-08-30T13:04:56.758Z,1.17
2022-08-30T13:07:25.262Z,1.23
2022-08-30T13:10:08.865Z,1.17
2022-08-30T13:12:40.304Z,1.15
2022-08-30T13:15:13.031Z,1.05
2022-08-30T13:17:40.317Z,1.30
2022-08-30T13:20:10.644Z,0.98
2022-08-30T13:22:39.186Z,1.00
2022-08-30T13:25:07.524Z,1.05
2022-08-30T13:27:37.037Z,1.10
2022-08-30T13:30:08.658Z,1.27
2022-08-30T13:32:41.142Z,1.10
2022-08-30T13:35:09.080Z,1.27
2022-08-30T13:37:52.199Z,1.05
2022-08-30T13:40:20.655Z,1.40
2022-08-30T13:42:48.256Z,1.25
2022-08-30T13:48:03.498Z,0.95
2022-08-30T13:50:31.550Z,1.00
2022-08-30T13:52:58.812Z,1.15
2022-08-30T13:55:26.185Z,1.10
2022-08-30T13:57:56.030Z,1.20
2022-08-30T14:00:25.120Z,1.27
2022-08-30T14:02:56.053Z,1.27
2022-08-30T14:11:04.483Z,1.30
2022-08-30T14:13:32.123Z,1.45
2022-08-30T14:18:49.028Z,1.25
2022-08-30T14:21:16.064Z,1.65
2022-08-30T14:23:43.395Z,1.30
2022-08-30T14:26:12.182Z,1.35
2022-08-30T14:28:39.393Z,1.25
2022-08-30T14:31:06.732Z,1.33
2022-08-30T14:33:33.948Z,1.40
2022-08-30T14:36:01.164Z,1.30
2022-08-30T14:38:28.356Z,1.33
2022-08-30T14:40:55.764Z,1.40
2022-08-30T14:43:23.064Z,1.33
2022-08-30T14:45:51.264Z,1.27
2022-08-30T14:48:18.967Z,1.20
2022-08-30T14:50:46.699Z,0.98
2022-08-30T14:53:13.955Z,1.50
2022-08-30T14:55:41.524Z,0.93
2022-08-30T14:58:10.774Z,1.08
2022-08-30T15:00:38.718Z,1.30
2022-08-30T15:03:06.171Z,1.10
2022-08-30T15:05:33.465Z,1.30
2022-08-30T15:08:00.712Z,1.08
2022-08-30T15:10:27.942Z,1.05
2022-08-30T15:12:55.200Z,1.08
2022-08-30T15:15:22.959Z,1.20
2022-08-30T15:17:50.379Z,1.40
2022-08-30T15:20:20.840Z,1.05
2022-08-30T15:22:48.087Z,1.00
2022-08-30T15:25:15.686Z,0.98
2022-08-30T15:27:44.244Z,1.20
2022-08-30T15:30:12.864Z,1.17
2022-08-30T15:32:41.978Z,1.10
2022-08-30T15:35:09.680Z,1.30
2022-08-30T15:37:37.583Z,1.15
2022-08-30T15:40:06.319Z,1.23
2022-08-30T15:42:33.783Z,1.45
2022-08-30T15:45:01.106Z,1.15
2022-08-30T15:47:28.427Z,1.23
2022-08-30T15:49:56.607Z,1.25
2022-08-30T15:52:24.043Z,1.10
2022-08-30T15:54:51.428Z,1.10
2022-08-30T15:57:18.655Z,1.20
2022-08-30T15:59:45.871Z,1.10
2022-08-30T16:02:12.738Z,1.20
2022-08-30T16:04:39.985Z,1.10
2022-08-30T16:07:08.679Z,1.05
2022-08-30T16:09:36.790Z,1.30
2022-08-30T16:12:06.150Z,0.93
2022-08-30T16:14:34.309Z,1.30
2022-08-30T16:17:01.876Z,1.00
2022-08-30T16:19:29.133Z,1.15
2022-08-30T16:21:56.912Z,1.00
2022-08-30T16:24:24.904Z,1.23
2022-08-30T16:26:51.799Z,1.00
2022-08-30T16:29:19.059Z,1.27
2022-08-30T16:31:47.597Z,1.30
2022-08-30T16:34:16.386Z,1.30
2022-08-30T16:36:43.976Z,1.20
2022-08-30T16:39:13.421Z,0.95
2022-08-30T16:41:42.144Z,1.15
2022-08-30T16:44:09.668Z,1.25
2022-08-30T16:46:41.186Z,1.08
2022-08-30T16:49:09.196Z,1.17
2022-08-30T16:51:36.656Z,1.52
2022-08-30T16:54:07.794Z,1.08
2022-08-30T16:56:36.083Z,1.42
2022-08-30T16:59:07.002Z,1.30
2022-08-30T17:01:38.782Z,1.07
2022-08-30T17:04:08.175Z,1.20
2022-08-30T17:06:35.822Z,1.15
2022-08-30T17:09:03.776Z,1.10
2022-08-30T17:11:32.286Z,1.10
2022-08-30T17:13:59.870Z,1.42
2022-08-30T17:16:30.002Z,1.23
2022-08-30T17:18:59.782Z,1.15
2022-08-30T17:21:28.295Z,1.30
2022-08-30T17:23:58.451Z,1.02
2022-08-30T17:26:29.392Z,1.23
2022-08-30T17:28:56.659Z,1.10
2022-08-30T17:31:27.784Z,1.17
2022-08-30T17:34:00.488Z,1.30
2022-08-30T17:36:28.670Z,1.20
2022-08-30T17:38:55.957Z,1.35
2022-08-30T17:41:23.362Z,1.23
2022-08-30T17:43:50.686Z,1.30
2022-08-30T17:46:18.669Z,1.10
2022-08-30T17:48:46.336Z,1.20
2022-08-30T17:51:14.440Z,1.17
2022-08-30T17:53:41.641Z,1.05
2022-08-30T17:56:10.919Z,0.93
2022-08-30T17:58:38.124Z,1.30
2022-08-30T18:01:11.621Z,1.17
2022-08-30T18:03:39.733Z,1.33
2022-08-30T18:06:07.357Z,1.05
2022-08-30T18:08:34.868Z,1.20
2022-08-30T18:11:03.663Z,1.27
2022-08-30T18:13:33.281Z,0.95
2022-08-30T18:16:02.337Z,1.08
2022-08-30T18:18:29.741Z,1.25
2022-08-30T18:20:57.054Z,0.90
2022-08-30T18:23:24.640Z,1.10
2022-08-30T18:25:59.358Z,1.13
2022-08-30T18:28:27.176Z,1.10
2022-08-30T18:30:58.119Z,1.25
2022-08-30T18:33:26.078Z,1.42
2022-08-30T18:35:56.334Z,1.13
2022-08-30T18:38:24.008Z,1.30
2022-08-30T18:40:52.042Z,1.27
2022-08-30T18:46:09.477Z,1.38
2022-08-30T18:48:36.976Z,1.00
2022-08-30T18:51:04.601Z,1.20
2022-08-30T18:53:32.684Z,1.58
2022-08-30T18:56:00.360Z,1.42
2022-08-30T18:58:27.599Z,1.10
2022-08-30T19:00:56.815Z,1.50
2022-08-30T19:03:24.486Z,1.60
2022-08-30T19:05:51.681Z,1.45
2022-08-30T19:08:19.135Z,1.80
2022-08-30T19:10:46.591Z,1.55
2022-08-30T19:13:14.004Z,1.45
2022-08-30T19:15:41.529Z,1.45
2022-08-30T19:18:17.416Z,1.70
2022-08-30T19:20:45.379Z,1.80
2022-08-30T19:23:13.073Z,1.80
2022-08-30T19:25:40.732Z,1.77
2022-08-30T19:28:08.502Z,1.33
2022-08-30T19:30:35.888Z,1.10
2022-08-30T19:33:03.608Z,1.50
2022-08-30T19:35:32.943Z,1.48
2022-08-30T19:38:00.319Z,1.17
2022-08-30T19:40:28.761Z,1.73
2022-08-30T19:42:56.750Z,1.33
2022-08-30T19:45:24.903Z,1.20
2022-08-30T19:47:53.521Z,1.73
2022-08-30T19:50:22.372Z,1.60
2022-08-30T19:52:54.314Z,1.60
2022-08-30T19:55:28.090Z,1.48
2022-08-30T19:57:56.120Z,1.75
2022-08-30T20:00:23.939Z,1.88
2022-08-30T20:02:52.041Z,1.38
2022-08-30T20:05:21.397Z,1.67
2022-08-30T20:07:51.203Z,0.95
2022-08-30T20:10:20.530Z,1.40
2022-08-30T20:12:49.834Z,1.55
2022-08-30T20:15:18.368Z,1.58
2022-08-30T20:18:14.406Z,1.30
2022-08-30T20:20:37.483Z,1.40
2022-08-30T20:23:05.614Z,1.48
2022-08-30T20:24:29.098Z,1.50
2022-08-30T20:25:33.264Z,1.30
2022-08-30T20:28:01.298Z,1.58
2022-08-30T20:30:28.565Z,2.30
2022-08-30T20:32:57.247Z,1.80
2022-08-30T20:35:24.556Z,1.70
2022-08-30T20:37:51.852Z,2.15
2022-08-30T20:40:20.835Z,2.00
2022-08-30T20:42:48.194Z,1.45
2022-08-30T20:45:16.971Z,1.73
2022-08-30T20:47:44.255Z,1.85
2022-08-30T20:50:14.416Z,1.95
2022-08-30T20:52:41.984Z,1.95
2022-08-30T20:55:10.104Z,1.70
2022-08-30T20:57:37.645Z,2.05
2022-08-30T21:00:10.846Z,1.80
2022-08-30T21:02:46.366Z,2.25
2022-08-30T21:07:43.188Z,2.22
2022-08-30T21:10:11.283Z,2.33
2022-08-30T21:12:38.889Z,2.30
2022-08-30T21:15:15.590Z,1.90
2022-08-30T21:17:53.897Z,2.17
2022-08-30T21:20:20.739Z,1.83
2022-08-30T21:22:47.967Z,2.60
2022-08-30T21:25:15.335Z,2.10
2022-08-30T21:27:43.728Z,2.03
2022-08-30T21:30:12.510Z,1.63
2022-08-30T21:32:40.005Z,1.52
2022-08-30T21:35:26.746Z,1.75
2022-08-30T21:37:54.037Z,1.60
2022-08-30T21:40:21.403Z,1.50
2022-08-30T21:42:48.835Z,1.75
2022-08-30T21:45:16.561Z,1.83
2022-08-30T21:47:43.985Z,1.77
2022-08-30T21:50:12.021Z,1.73
2022-08-30T21:52:39.383Z,1.35
2022-08-30T21:55:07.319Z,1.50
2022-08-30T21:57:34.569Z,1.50
2022-08-30T22:00:01.842Z,1.42
2022-08-30T22:02:29.229Z,1.65
2022-08-30T22:04:56.603Z,1.50
2022-08-30T22:07:23.813Z,1.33
2022-08-30T22:09:51.274Z,1.52
2022-08-30T22:12:18.527Z,1.50
2022-08-30T22:14:46.073Z,1.23
2022-08-30T22:17:13.618Z,1.40
2022-08-30T22:19:40.448Z,1.27
2022-08-30T22:22:07.717Z,1.60
2022-08-30T22:24:34.949Z,1.20
2022-08-30T22:27:02.830Z,1.52
2022-08-30T22:29:30.459Z,1.50
2022-08-30T22:31:57.876Z,1.55
2022-08-30T22:34:25.149Z,1.30
2022-08-30T22:36:52.430Z,1.75
2022-08-30T22:39:19.373Z,1.10
2022-08-30T22:41:47.284Z,1.60
2022-08-30T22:44:14.532Z,1.25
2022-08-30T22:46:41.778Z,1.40
2022-08-30T22:49:09.864Z,1.70
2022-08-30T22:51:37.984Z,1.48
2022-08-30T22:54:06.243Z,1.63
2022-08-30T22:56:34.664Z,1.38
2022-08-30T22:59:02.084Z,1.25
2022-08-30T23:01:37.263Z,1.15
2022-08-30T23:04:05.673Z,1.10
2022-08-30T23:06:33.374Z,1.88
2022-08-30T23:09:00.934Z,1.45
2022-08-30T23:11:28.595Z,1.50
2022-08-30T23:13:57.904Z,1.50
2022-08-30T23:16:24.836Z,1.63
2022-08-30T23:18:52.147Z,1.08
2022-08-30T23:21:22.206Z,1.20
2022-08-30T23:24:08.765Z,1.33
2022-08-30T23:26:54.756Z,1.50
2022-08-30T23:29:40.605Z,1.25
2022-08-30T23:32:26.601Z,1.13
2022-08-30T23:35:12.033Z,1.30
2022-08-30T23:37:57.456Z,1.53
2022-08-30T23:40:43.428Z,1.20
2022-08-30T23:43:29.689Z,1.50
2022-08-30T23:46:18.913Z,1.38
2022-08-30T23:49:06.302Z,1.40
2022-08-30T23:51:52.890Z,1.15
2022-08-30T23:54:38.858Z,0.93
2022-08-30T23:57:24.758Z,1.58
